Time;durP1;ratioP1;P1;durP2;ratioP2;P2;SDS_P1;SDS_P2;PMS_P1;PMS_P2;Temp;Humidity;BMP_temperature;BMP_pressure;BME280_temperature;BME280_humidity;BME280_pressure;Samples;Min_cycle;Max_cycle;Signal;HPM_P1;HPM_P2
2022/10/07 00:01:35;;;;;;;13.77;1.90;;;15.40;99.90;;;;;;5038751;28;20033;-73
2022/10/07 00:04:00;;;;;;;13.10;1.85;;;15.30;99.90;;;;;;5034188;28;20474;-75
2022/10/07 00:06:26;;;;;;;12.18;1.77;;;15.40;99.90;;;;;;5040189;28;20033;-73
2022/10/07 00:08:52;;;;;;;14.60;1.90;;;15.40;99.90;;;;;;5062069;28;20035;-74
2022/10/07 00:11:23;;;;;;;15.32;1.85;;;15.40;99.90;;;;;;5073488;28;20032;-73
2022/10/07 00:13:52;;;;;;;11.95;1.77;;;15.40;99.90;;;;;;5038993;28;20645;-74
2022/10/07 00:16:23;;;;;;;12.85;1.90;;;15.40;99.90;;;;;;5059463;28;20028;-73
2022/10/07 00:18:49;;;;;;;13.00;2.22;;;15.40;99.90;;;;;;5058577;28;20039;-75
2022/10/07 00:21:16;;;;;;;12.90;1.80;;;15.40;99.90;;;;;;5077821;28;20036;-74
2022/10/07 00:23:43;;;;;;;15.30;2.20;;;15.40;99.90;;;;;;5069040;28;20036;-74
2022/10/07 00:26:12;;;;;;;11.80;1.67;;;15.40;99.90;;;;;;5067478;28;20040;-73
2022/10/07 00:28:38;;;;;;;10.82;1.60;;;15.40;99.90;;;;;;5065604;28;20142;-74
2022/10/07 00:31:07;;;;;;;13.57;1.60;;;15.40;99.90;;;;;;5061481;28;20025;-75
2022/10/07 00:33:35;;;;;;;13.23;2.08;;;15.40;99.90;;;;;;5064158;28;20119;-73
2022/10/07 00:36:06;;;;;;;11.68;1.70;;;15.30;99.90;;;;;;5066720;28;20056;-74
2022/10/07 00:38:31;;;;;;;10.05;1.83;;;15.30;99.90;;;;;;5041727;28;20029;-73
2022/10/07 00:40:57;;;;;;;11.77;1.58;;;15.30;99.90;;;;;;5038565;28;20024;-73
2022/10/07 00:43:26;;;;;;;13.95;2.10;;;15.30;99.90;;;;;;5046916;28;20367;-75
2022/10/07 00:45:55;;;;;;;10.90;1.70;;;15.30;99.90;;;;;;5058695;28;20376;-74
2022/10/07 00:48:26;;;;;;;11.00;1.58;;;15.30;99.90;;;;;;5066197;28;20036;-74
2022/10/07 00:50:55;;;;;;;12.25;1.90;;;15.30;99.90;;;;;;5054373;28;20409;-73
2022/10/07 00:53:24;;;;;;;18.45;2.30;;;15.30;99.90;;;;;;5071318;28;20074;-73
2022/10/07 00:55:50;;;;;;;12.88;1.98;;;15.30;99.90;;;;;;5072772;28;20054;-74
2022/10/07 00:58:18;;;;;;;12.02;1.70;;;15.40;99.90;;;;;;5087725;28;20441;-73
2022/10/07 01:00:43;;;;;;;14.18;2.83;;;15.40;99.90;;;;;;5060628;28;20028;-74
2022/10/07 01:03:09;;;;;;;13.60;2.00;;;15.50;99.90;;;;;;5056927;28;20086;-75
2022/10/07 01:05:35;;;;;;;11.00;1.77;;;15.50;99.90;;;;;;5066813;28;20067;-76
2022/10/07 01:08:01;;;;;;;10.63;1.60;;;15.50;99.90;;;;;;5076377;28;20138;-75
2022/10/07 01:10:34;;;;;;;12.63;2.00;;;15.50;99.90;;;;;;5071148;28;20080;-74
2022/10/07 01:13:09;;;;;;;11.55;1.83;;;15.50;99.90;;;;;;5064877;28;20059;-73
2022/10/07 01:15:39;;;;;;;12.27;1.73;;;15.50;99.90;;;;;;5052890;28;20505;-74
2022/10/07 01:18:37;;;;;;;15.15;2.33;;;15.60;99.90;;;;;;5066816;28;20032;-74
2022/10/07 01:21:13;;;;;;;12.35;1.98;;;15.60;99.90;;;;;;5049345;28;20052;-73
2022/10/07 01:23:51;;;;;;;8.15;1.50;;;15.60;99.90;;;;;;5057883;28;20028;-75
2022/10/07 01:26:40;;;;;;;12.52;1.70;;;15.60;99.90;;;;;;5071100;28;20024;-74
2022/10/07 01:29:34;;;;;;;15.15;1.85;;;15.60;99.90;;;;;;5066351;28;20033;-74
2022/10/07 01:32:38;;;;;;;13.48;1.77;;;15.60;99.90;;;;;;5063586;28;20040;-74
2022/10/07 01:35:17;;;;;;;14.63;1.83;;;15.70;99.90;;;;;;5054447;28;20036;-74
2022/10/07 01:37:49;;;;;;;10.68;1.40;;;15.60;99.90;;;;;;5073253;28;20028;-72
2022/10/07 01:40:21;;;;;;;13.63;1.88;;;15.70;99.90;;;;;;5047879;28;20020;-74
2022/10/07 01:42:48;;;;;;;11.52;1.63;;;15.60;99.90;;;;;;5066822;28;20024;-74
2022/10/07 01:45:20;;;;;;;12.38;1.67;;;15.60;99.90;;;;;;5056035;28;20043;-73
2022/10/07 01:47:47;;;;;;;10.48;1.63;;;15.70;99.90;;;;;;5050797;28;20036;-75
2022/10/07 01:50:14;;;;;;;15.82;2.22;;;15.70;99.90;;;;;;5056626;28;20263;-74
2022/10/07 01:52:54;;;;;;;15.73;2.28;;;15.70;99.90;;;;;;5055692;28;20110;-73
2022/10/07 01:55:44;;;;;;;11.68;2.33;;;15.70;99.90;;;;;;5063468;28;20039;-74
2022/10/07 01:58:29;;;;;;;;;;;15.70;99.90;;;;;;5042469;28;20085;-73
2022/10/07 02:01:17;;;;;;;11.40;1.65;;;15.70;99.90;;;;;;5055941;28;19912;-73
2022/10/07 02:03:49;;;;;;;14.30;2.13;;;15.70;99.90;;;;;;5059323;28;20568;-72
2022/10/07 02:06:43;;;;;;;8.57;1.50;;;15.60;99.90;;;;;;5073201;28;20128;-74
2022/10/07 02:09:19;;;;;;;15.07;2.30;;;15.60;99.90;;;;;;5051544;28;20032;-71
2022/10/07 02:11:51;;;;;;;16.00;1.75;;;15.60;99.90;;;;;;5047666;28;20028;-74
2022/10/07 02:14:25;;;;;;;13.57;2.17;;;15.60;99.90;;;;;;5053948;28;20037;-74
2022/10/07 02:17:00;;;;;;;13.27;1.98;;;15.60;99.90;;;;;;5052480;28;20059;-73
2022/10/07 02:19:33;;;;;;;14.55;2.03;;;15.60;99.90;;;;;;5071031;28;20032;-72
2022/10/07 02:22:03;;;;;;;13.23;2.10;;;15.60;99.90;;;;;;5065652;28;20056;-73
2022/10/07 02:24:32;;;;;;;17.48;2.47;;;15.60;99.90;;;;;;5067803;28;20710;-72
2022/10/07 02:27:04;;;;;;;12.10;1.85;;;15.60;99.90;;;;;;5059616;28;20024;-73
2022/10/07 02:29:34;;;;;;;15.50;2.45;;;15.50;99.90;;;;;;5060301;28;20067;-73
2022/10/07 02:32:04;;;;;;;11.55;1.63;;;15.50;99.90;;;;;;5063390;28;20047;-72
2022/10/07 02:34:31;;;;;;;12.23;1.95;;;15.50;99.90;;;;;;5063307;28;20606;-74
2022/10/07 02:37:02;;;;;;;10.65;2.00;;;15.60;99.90;;;;;;5059300;28;20037;-74
2022/10/07 02:39:28;;;;;;;14.95;2.72;;;15.60;99.90;;;;;;5073845;28;20040;-72
2022/10/07 02:42:03;;;;;;;15.38;2.92;;;15.50;99.90;;;;;;5065853;28;20029;-73
2022/10/07 02:44:38;;;;;;;11.45;2.30;;;15.60;99.90;;;;;;5053671;28;20043;-75
2022/10/07 02:47:16;;;;;;;16.70;3.28;;;15.60;99.90;;;;;;5048679;28;20026;-73
2022/10/07 02:49:47;;;;;;;14.75;2.53;;;15.60;99.90;;;;;;5050992;28;20039;-74
2022/10/07 02:52:15;;;;;;;14.20;2.85;;;15.60;99.90;;;;;;5057466;28;20028;-74
2022/10/07 02:54:56;;;;;;;11.90;2.03;;;15.60;99.90;;;;;;5068191;28;20119;-72
2022/10/07 02:57:23;;;;;;;12.10;2.22;;;15.60;99.90;;;;;;5073603;28;20033;-73
2022/10/07 02:59:52;;;;;;;13.00;1.77;;;15.60;99.90;;;;;;5064915;28;20475;-74
2022/10/07 03:02:34;;;;;;;13.07;1.92;;;15.60;99.90;;;;;;5064589;28;20032;-75
2022/10/07 03:04:59;;;;;;;16.92;2.13;;;15.60;99.90;;;;;;5044173;28;20047;-74
2022/10/07 03:07:26;;;;;;;14.18;1.75;;;15.60;99.90;;;;;;5066621;28;20598;-74
2022/10/07 03:09:52;;;;;;;9.25;1.30;;;15.50;99.90;;;;;;5064478;28;20044;-74
2022/10/07 03:12:18;;;;;;;10.48;1.38;;;15.50;99.90;;;;;;5069349;28;20079;-74
2022/10/07 03:14:45;;;;;;;9.73;1.40;;;15.40;99.90;;;;;;5062211;28;20140;-75
2022/10/07 03:17:10;;;;;;;14.25;1.92;;;15.40;99.90;;;;;;5060561;28;20021;-73
2022/10/07 03:19:36;;;;;;;13.18;1.90;;;15.30;99.90;;;;;;5064325;28;20052;-74
2022/10/07 03:22:02;;;;;;;10.90;2.05;;;15.30;99.90;;;;;;5068679;28;20036;-73
2022/10/07 03:24:29;;;;;;;12.13;2.22;;;15.40;99.90;;;;;;5079956;28;20038;-74
2022/10/07 03:26:55;;;;;;;15.32;2.85;;;15.50;99.90;;;;;;5067198;28;20127;-73
2022/10/07 03:29:21;;;;;;;12.98;2.72;;;15.50;99.90;;;;;;5066343;28;20457;-74
2022/10/07 03:31:47;;;;;;;13.73;2.75;;;15.50;99.90;;;;;;5066106;28;20067;-72
2022/10/07 03:34:12;;;;;;;15.63;2.42;;;15.50;99.90;;;;;;5058511;28;20090;-73
2022/10/07 03:36:38;;;;;;;12.48;2.60;;;15.50;99.90;;;;;;5066522;28;20028;-73
2022/10/07 03:39:03;;;;;;;12.73;2.55;;;15.50;99.90;;;;;;5065112;28;20487;-72
2022/10/07 03:41:29;;;;;;;14.48;1.85;;;15.40;99.90;;;;;;5057548;28;20453;-73
2022/10/07 03:43:56;;;;;;;11.00;1.92;;;15.30;99.90;;;;;;5065179;28;20121;-72
2022/10/07 03:46:22;;;;;;;14.65;1.65;;;15.20;99.90;;;;;;5072601;28;20028;-72
2022/10/07 03:48:48;;;;;;;10.70;1.60;;;15.10;99.90;;;;;;5071089;28;20681;-71
2022/10/07 03:51:13;;;;;;;11.15;1.42;;;14.90;99.90;;;;;;5054789;28;20043;-71
2022/10/07 03:53:39;;;;;;;7.55;1.10;;;14.90;99.90;;;;;;5069155;28;20036;-73
2022/10/07 03:56:06;;;;;;;10.43;1.70;;;14.80;99.90;;;;;;5065047;28;20656;-73
2022/10/07 03:58:32;;;;;;;14.15;1.70;;;14.70;99.90;;;;;;5053398;28;20060;-71
2022/10/07 04:01:08;;;;;;;10.30;1.50;;;14.70;99.90;;;;;;5054103;28;20060;-72
2022/10/07 04:03:34;;;;;;;11.10;2.08;;;14.70;99.90;;;;;;5067851;28;20036;-72
2022/10/07 04:06:00;;;;;;;12.43;2.08;;;14.70;99.90;;;;;;5065666;28;20040;-73
2022/10/07 04:08:29;;;;;;;15.95;1.92;;;14.70;99.90;;;;;;5068144;28;20025;-72
2022/10/07 04:10:56;;;;;;;12.77;1.85;;;14.70;99.90;;;;;;5062375;28;20528;-72
2022/10/07 04:13:22;;;;;;;11.20;1.52;;;14.70;99.90;;;;;;5062434;28;20068;-73
2022/10/07 04:15:48;;;;;;;10.63;1.65;;;14.70;99.90;;;;;;5072024;28;20024;-73
2022/10/07 04:18:13;;;;;;;13.02;2.20;;;14.70;99.90;;;;;;5079125;28;20033;-73
2022/10/07 04:20:39;;;;;;;13.40;2.33;;;14.70;99.90;;;;;;5066028;28;20031;-72
2022/10/07 04:23:05;;;;;;;9.07;1.50;;;14.70;99.90;;;;;;5063723;28;20051;-72
2022/10/07 04:25:34;;;;;;;12.45;2.00;;;14.70;99.90;;;;;;5066768;28;20043;-71
2022/10/07 04:28:10;;;;;;;12.35;1.75;;;14.70;99.90;;;;;;5060292;28;20565;-71
2022/10/07 04:30:42;;;;;;;10.65;1.90;;;14.70;99.90;;;;;;5053830;28;20080;-71
2022/10/07 04:33:08;;;;;;;13.38;1.90;;;14.70;99.90;;;;;;5065608;28;20033;-71
2022/10/07 04:35:37;;;;;;;11.63;1.48;;;14.70;99.90;;;;;;5063407;28;20043;-74
2022/10/07 04:38:05;;;;;;;12.65;1.80;;;14.80;99.90;;;;;;5073703;28;20032;-71
2022/10/07 04:40:31;;;;;;;13.00;1.90;;;14.70;99.90;;;;;;5067628;28;20513;-73
2022/10/07 04:45:41;;;;;;;12.98;1.70;;;14.80;99.90;;;;;;5076358;28;20047;-72
2022/10/07 04:48:07;;;;;;;9.20;1.60;;;14.80;99.90;;;;;;5056986;28;20741;-73
2022/10/07 04:50:37;;;;;;;13.43;1.88;;;14.70;99.90;;;;;;5062393;28;20036;-72
2022/10/07 04:53:10;;;;;;;9.50;1.80;;;14.80;99.90;;;;;;5074400;28;20043;-73
2022/10/07 04:55:42;;;;;;;13.30;1.40;;;14.80;99.90;;;;;;5070183;28;20056;-73
2022/10/07 04:58:08;;;;;;;10.52;1.50;;;14.70;99.90;;;;;;5068045;28;20037;-72
2022/10/07 05:00:34;;;;;;;12.10;1.70;;;14.70;99.90;;;;;;5063415;28;20035;-72
2022/10/07 05:03:00;;;;;;;12.70;1.42;;;14.70;99.90;;;;;;5043019;28;20558;-72
2022/10/07 05:05:27;;;;;;;12.35;2.05;;;14.70;99.90;;;;;;5075460;28;20047;-71
2022/10/07 05:07:53;;;;;;;10.85;2.17;;;14.60;99.90;;;;;;5062257;28;20502;-72
2022/10/07 05:10:20;;;;;;;11.40;1.75;;;14.60;99.90;;;;;;5058521;28;20044;-73
2022/10/07 05:12:46;;;;;;;13.27;2.17;;;14.70;99.90;;;;;;5069903;28;20035;-71
2022/10/07 05:15:11;;;;;;;16.02;2.80;;;14.70;99.90;;;;;;5061688;28;20032;-72
2022/10/07 05:17:39;;;;;;;15.02;2.40;;;14.70;99.90;;;;;;5054617;28;20093;-71
2022/10/07 05:20:07;;;;;;;15.20;2.55;;;14.70;99.90;;;;;;5058621;28;20040;-72
2022/10/07 05:22:33;;;;;;;11.98;2.00;;;14.70;99.90;;;;;;5066477;28;20113;-72
2022/10/07 05:24:58;;;;;;;15.93;2.10;;;14.70;99.90;;;;;;5059304;28;20593;-72
2022/10/07 05:27:24;;;;;;;10.70;1.70;;;14.80;99.90;;;;;;5077747;28;20772;-72
2022/10/07 05:29:50;;;;;;;11.45;1.85;;;14.80;99.90;;;;;;5070395;28;20025;-71
2022/10/07 05:32:16;;;;;;;12.15;2.00;;;14.80;99.90;;;;;;5053916;28;20538;-72
2022/10/07 05:34:43;;;;;;;10.45;2.10;;;14.80;99.90;;;;;;5076808;28;20431;-72
2022/10/07 05:37:10;;;;;;;13.23;2.35;;;14.80;99.90;;;;;;5053487;28;20036;-72
2022/10/07 05:39:35;;;;;;;14.57;1.85;;;14.80;99.90;;;;;;5060291;28;20033;-72
2022/10/07 05:42:01;;;;;;;11.82;2.20;;;14.80;99.90;;;;;;5050662;28;20047;-74
2022/10/07 05:44:30;;;;;;;14.23;2.92;;;14.80;99.90;;;;;;5062922;28;20037;-73
2022/10/07 05:46:55;;;;;;;9.98;2.10;;;14.80;99.90;;;;;;5064687;28;20032;-73
2022/10/07 05:49:21;;;;;;;12.98;2.15;;;14.80;99.90;;;;;;5064317;28;20037;-73
2022/10/07 05:51:47;;;;;;;14.23;2.42;;;14.80;99.90;;;;;;5061176;28;20471;-72
2022/10/07 05:54:12;;;;;;;11.93;2.00;;;14.80;99.90;;;;;;5059836;28;20032;-72
2022/10/07 05:56:38;;;;;;;12.20;2.20;;;14.80;99.90;;;;;;5078171;28;20039;-72
2022/10/07 05:59:04;;;;;;;13.50;2.00;;;14.80;99.90;;;;;;5075416;28;20071;-71
2022/10/07 06:01:29;;;;;;;15.27;2.20;;;14.80;99.90;;;;;;5054653;28;20035;-73
2022/10/07 06:03:56;;;;;;;10.93;2.33;;;14.80;99.90;;;;;;5044498;28;20422;-71
2022/10/07 06:06:22;;;;;;;11.18;1.75;;;14.80;99.90;;;;;;5042971;28;20445;-73
2022/10/07 06:08:48;;;;;;;16.63;2.22;;;14.90;99.90;;;;;;5034761;28;20094;-72
2022/10/07 06:14:00;;;;;;;13.50;2.45;;;14.90;99.90;;;;;;5049755;28;20635;-73
2022/10/07 06:16:26;;;;;;;14.95;2.47;;;14.90;99.90;;;;;;5050931;28;20040;-73
2022/10/07 06:18:53;;;;;;;11.38;2.10;;;14.90;99.90;;;;;;5050871;28;20040;-72
2022/10/07 06:21:20;;;;;;;9.70;1.90;;;15.00;99.90;;;;;;5046111;28;20035;-72
2022/10/07 06:23:52;;;;;;;11.48;1.73;;;15.00;99.90;;;;;;5033531;28;20122;-72
2022/10/07 06:26:20;;;;;;;10.70;2.38;;;15.10;99.90;;;;;;5052210;28;20512;-72
2022/10/07 06:28:46;;;;;;;11.52;1.83;;;15.10;99.90;;;;;;5052285;28;20037;-71
2022/10/07 06:31:14;;;;;;;10.85;1.73;;;15.10;99.90;;;;;;5050096;28;20114;-73
2022/10/07 06:33:40;;;;;;;11.88;1.63;;;15.10;99.90;;;;;;5057217;28;20036;-73
2022/10/07 06:36:10;;;;;;;11.63;1.55;;;15.10;99.90;;;;;;5056775;28;20097;-73
2022/10/07 06:38:37;;;;;;;12.45;1.65;;;15.10;99.90;;;;;;5056978;28;20394;-72
2022/10/07 06:41:04;;;;;;;15.57;1.85;;;15.10;99.90;;;;;;5046856;28;20032;-73
2022/10/07 06:43:32;;;;;;;11.32;1.60;;;15.10;99.90;;;;;;5053766;28;20044;-72
2022/10/07 06:46:00;;;;;;;13.75;1.70;;;15.10;99.90;;;;;;5040129;28;20032;-74
2022/10/07 06:48:28;;;;;;;11.27;1.80;;;15.20;99.90;;;;;;5055326;28;20040;-72
2022/10/07 06:50:55;;;;;;;16.02;2.92;;;15.20;99.90;;;;;;5055308;28;20068;-72
2022/10/07 06:53:21;;;;;;;10.15;1.35;;;15.30;99.90;;;;;;5057978;28;20037;-72
2022/10/07 06:55:50;;;;;;;12.90;1.80;;;15.30;99.90;;;;;;5053750;28;20423;-72
2022/10/07 06:58:16;;;;;;;10.93;1.15;;;15.30;99.90;;;;;;5060823;28;20717;-73
2022/10/07 07:00:46;;;;;;;11.95;1.60;;;15.30;99.90;;;;;;5057378;28;20064;-74
2022/10/07 07:03:12;;;;;;;10.68;1.73;;;15.30;99.90;;;;;;5051011;28;20043;-74
2022/10/07 07:05:38;;;;;;;10.95;1.23;;;15.30;99.90;;;;;;5050965;28;20033;-70
2022/10/07 07:08:04;;;;;;;13.27;1.70;;;15.30;99.90;;;;;;5040551;28;20052;-73
2022/10/07 07:10:30;;;;;;;7.90;2.13;;;15.40;99.90;;;;;;5064894;28;20223;-72
2022/10/07 07:12:56;;;;;;;9.18;1.38;;;15.40;99.90;;;;;;5058609;28;20036;-72
2022/10/07 07:15:22;;;;;;;10.60;1.92;;;15.40;99.90;;;;;;5056840;28;20064;-71
2022/10/07 07:17:48;;;;;;;13.40;2.10;;;15.40;99.90;;;;;;5056200;28;20044;-72
2022/10/07 07:20:14;;;;;;;10.27;1.55;;;15.50;99.90;;;;;;5033814;28;20024;-72
2022/10/07 07:22:40;;;;;;;9.55;1.80;;;15.50;99.90;;;;;;5057424;28;20032;-71
2022/10/07 07:25:08;;;;;;;10.30;1.60;;;15.50;99.90;;;;;;5060147;28;20059;-73
2022/10/07 07:27:34;;;;;;;12.55;1.60;;;15.50;99.90;;;;;;5068809;28;20041;-72
2022/10/07 07:30:01;;;;;;;11.52;1.60;;;15.50;99.90;;;;;;5048748;28;20032;-74
2022/10/07 07:32:28;;;;;;;13.27;2.05;;;15.50;99.90;;;;;;5051673;28;20037;-72
2022/10/07 07:34:55;;;;;;;16.60;1.60;;;15.50;99.90;;;;;;5058904;28;20033;-72
2022/10/07 07:37:21;;;;;;;10.10;1.58;;;15.50;99.90;;;;;;5065118;28;20029;-73
2022/10/07 07:39:46;;;;;;;9.50;1.85;;;15.50;99.90;;;;;;5043253;28;20028;-72
2022/10/07 07:42:12;;;;;;;10.15;1.30;;;15.50;99.90;;;;;;5040277;28;20678;-73
2022/10/07 07:44:39;;;;;;;11.73;1.35;;;15.50;99.90;;;;;;5047990;28;20111;-72
2022/10/07 07:47:05;;;;;;;11.75;1.60;;;15.50;99.90;;;;;;5064974;28;20032;-71
2022/10/07 07:49:32;;;;;;;13.45;1.77;;;15.60;99.90;;;;;;5067226;28;20024;-71
2022/10/07 07:51:59;;;;;;;11.00;1.50;;;15.70;99.90;;;;;;5060608;28;20032;-70
2022/10/07 07:54:26;;;;;;;8.70;1.90;;;15.80;99.90;;;;;;5066184;28;20048;-71
2022/10/07 07:56:56;;;;;;;10.05;1.55;;;15.80;99.90;;;;;;5041432;28;20028;-71
2022/10/07 07:59:22;;;;;;;;;;;15.90;99.90;;;;;;5064959;28;20032;-71
2022/10/07 08:01:47;;;;;;;8.95;1.50;;;15.90;99.90;;;;;;5061313;28;19912;-71
2022/10/07 08:04:14;;;;;;;10.50;1.63;;;15.90;99.90;;;;;;5060728;28;20033;-71
2022/10/07 08:06:41;;;;;;;9.75;1.38;;;15.90;99.90;;;;;;5032100;28;20047;-71
2022/10/07 08:09:07;;;;;;;9.98;1.40;;;15.90;99.90;;;;;;5056612;28;20426;-71
2022/10/07 08:11:33;;;;;;;13.38;2.28;;;15.90;99.90;;;;;;5069374;28;20116;-70
2022/10/07 08:13:59;;;;;;;9.80;1.65;;;15.90;99.90;;;;;;5054947;28;20120;-72
2022/10/07 08:16:27;;;;;;;11.70;1.40;;;16.00;99.90;;;;;;5059412;28;20124;-72
2022/10/07 08:18:54;;;;;;;11.52;1.45;;;16.10;99.90;;;;;;5065827;28;20556;-72
2022/10/07 08:21:23;;;;;;;13.55;1.67;;;16.30;99.90;;;;;;5050336;28;20079;-74
2022/10/07 08:23:57;;;;;;;8.53;1.50;;;16.30;99.90;;;;;;5069170;28;20036;-71
2022/10/07 08:26:24;;;;;;;9.15;1.40;;;16.40;99.90;;;;;;5055699;28;20060;-71
2022/10/07 08:28:49;;;;;;;9.25;1.83;;;16.50;99.90;;;;;;5031250;28;20029;-71
2022/10/07 08:31:17;;;;;;;10.18;1.30;;;16.50;99.90;;;;;;5049744;28;20102;-72
2022/10/07 08:33:44;;;;;;;9.90;1.38;;;16.50;99.90;;;;;;5050246;28;20044;-72
2022/10/07 08:36:13;;;;;;;9.90;1.55;;;16.50;99.90;;;;;;5064732;28;20032;-72
2022/10/07 08:38:40;;;;;;;11.65;1.45;;;16.50;99.90;;;;;;5048878;28;20067;-71
2022/10/07 08:41:15;;;;;;;7.50;1.30;;;16.50;99.90;;;;;;5048946;28;20041;-73
2022/10/07 08:43:47;;;;;;;7.65;1.13;;;16.30;99.90;;;;;;5031981;28;20742;-71
2022/10/07 08:46:25;;;;;;;9.05;1.00;;;16.10;99.90;;;;;;5030627;28;20488;-74
2022/10/07 08:49:00;;;;;;;5.83;0.97;;;15.90;99.90;;;;;;5049180;28;20479;-71
2022/10/07 08:51:53;;;;;;;5.05;0.88;;;15.60;99.90;;;;;;5054961;28;20040;-72
2022/10/07 08:54:25;;;;;;;7.30;1.58;;;15.50;99.90;;;;;;5046316;28;20037;-71
2022/10/07 08:56:52;;;;;;;5.63;0.90;;;15.40;99.90;;;;;;5068693;28;20056;-71
2022/10/07 08:59:30;;;;;;;5.45;0.80;;;15.40;99.90;;;;;;5049791;28;20036;-71
2022/10/07 09:02:25;;;;;;;4.93;1.20;;;15.30;99.90;;;;;;5068606;28;20091;-73
2022/10/07 09:05:32;;;;;;;6.82;1.10;;;15.40;99.90;;;;;;5049407;28;20134;-70
2022/10/07 09:08:03;;;;;;;8.13;1.00;;;15.40;99.90;;;;;;5004649;28;20044;-70
2022/10/07 09:10:43;;;;;;;9.30;1.17;;;15.50;99.90;;;;;;5005419;28;20092;-70
2022/10/07 09:13:19;;;;;;;5.10;0.77;;;15.60;99.90;;;;;;5005955;28;20676;-70
2022/10/07 09:15:57;;;;;;;11.35;1.50;;;15.70;99.90;;;;;;5005864;28;20045;-70
2022/10/07 09:18:35;;;;;;;8.02;1.48;;;15.70;99.90;;;;;;4996895;28;20052;-73
2022/10/07 09:21:06;;;;;;;10.52;1.42;;;15.80;99.90;;;;;;5004675;28;20033;-73
2022/10/07 09:23:32;;;;;;;12.10;1.90;;;15.90;99.90;;;;;;5011671;28;20265;-72
2022/10/07 09:25:59;;;;;;;8.40;1.52;;;16.20;99.90;;;;;;5002021;28;20044;-72
2022/10/07 09:28:32;;;;;;;10.88;1.77;;;16.40;99.90;;;;;;5003432;28;20507;-72
2022/10/07 09:30:59;;;;;;;10.45;1.48;;;16.70;99.90;;;;;;5006019;28;20045;-73
2022/10/07 09:33:28;;;;;;;7.65;1.38;;;16.80;99.90;;;;;;5005528;28;20436;-72
2022/10/07 09:36:09;;;;;;;8.77;1.10;;;16.90;99.90;;;;;;5000720;28;20181;-73
2022/10/07 09:38:37;;;;;;;6.78;1.08;;;16.90;99.90;;;;;;5025486;28;20076;-72
2022/10/07 09:41:30;;;;;;;9.48;1.23;;;16.90;99.90;;;;;;5041577;28;20033;-73
2022/10/07 09:44:21;;;;;;;10.00;1.27;;;17.10;99.90;;;;;;5052678;28;20116;-73
2022/10/07 09:46:56;;;;;;;9.98;2.75;;;17.40;99.90;;;;;;5031101;28;20041;-74
2022/10/07 09:49:27;;;;;;;9.27;1.90;;;17.70;99.90;;;;;;5053334;28;20462;-73
2022/10/07 09:52:04;;;;;;;9.77;1.70;;;17.90;99.90;;;;;;5051871;28;20036;-72
2022/10/07 09:54:33;;;;;;;7.72;1.25;;;17.80;99.90;;;;;;5062393;28;20044;-73
2022/10/07 09:57:02;;;;;;;11.13;1.40;;;17.60;99.90;;;;;;5049674;28;20046;-75
2022/10/07 09:59:31;;;;;;;9.15;1.45;;;17.50;99.90;;;;;;5049695;28;20029;-72
2022/10/07 10:02:25;;;;;;;6.60;1.20;;;17.30;99.90;;;;;;5042303;28;20039;-75
2022/10/07 10:04:56;;;;;;;7.72;1.50;;;17.10;99.90;;;;;;5045654;28;20041;-73
2022/10/07 10:07:31;;;;;;;9.43;1.50;;;17.00;99.90;;;;;;5032850;28;20032;-73
2022/10/07 10:10:13;;;;;;;9.65;1.42;;;16.90;99.90;;;;;;5060729;28;20052;-71
2022/10/07 10:12:51;;;;;;;7.00;1.50;;;16.80;99.90;;;;;;5067498;28;20036;-72
2022/10/07 10:15:38;;;;;;;9.30;1.20;;;16.80;99.90;;;;;;5067516;28;20036;-72
2022/10/07 10:18:39;;;;;;;10.57;1.40;;;16.80;99.90;;;;;;5066328;28;20772;-73
2022/10/07 10:21:13;;;;;;;8.40;1.48;;;17.00;99.90;;;;;;5051283;28;20127;-72
2022/10/07 10:24:10;;;;;;;9.80;1.27;;;17.30;99.90;;;;;;5071477;28;20445;-73
2022/10/07 10:26:56;;;;;;;10.05;1.88;;;17.30;99.90;;;;;;5068496;28;20048;-73
2022/10/07 10:29:31;;;;;;;12.38;1.60;;;17.30;99.90;;;;;;5053750;28;20053;-72
2022/10/07 10:32:00;;;;;;;10.02;1.30;;;17.30;99.90;;;;;;5071335;28;20074;-75
2022/10/07 10:34:34;;;;;;;10.35;1.75;;;17.30;99.90;;;;;;5071234;28;20488;-72
2022/10/07 10:37:19;;;;;;;13.50;2.03;;;17.20;99.90;;;;;;5051566;28;20041;-72
2022/10/07 10:40:12;;;;;;;9.10;1.67;;;17.20;99.90;;;;;;5051772;28;20495;-74
2022/10/07 10:42:44;;;;;;;8.23;1.42;;;17.10;99.90;;;;;;5033284;28;20033;-73
2022/10/07 10:45:44;;;;;;;11.13;1.42;;;17.00;99.90;;;;;;5051489;28;20029;-73
2022/10/07 10:48:27;;;;;;;7.97;1.13;;;16.90;99.90;;;;;;5054301;28;20151;-73
2022/10/07 10:51:20;;;;;;;6.03;0.95;;;16.80;99.90;;;;;;5067369;28;20036;-78
2022/10/07 10:54:03;;;;;;;4.82;1.20;;;16.60;99.90;;;;;;5052086;28;20613;-73
2022/10/07 10:56:59;;;;;;;3.28;0.55;;;16.50;99.90;;;;;;5033326;28;20461;-73
2022/10/07 10:59:43;;;;;;;3.55;0.65;;;16.30;99.90;;;;;;5050720;28;20106;-74
2022/10/07 11:02:37;;;;;;;5.07;0.70;;;16.30;99.90;;;;;;5043897;28;20145;-72
2022/10/07 11:05:18;;;;;;;2.50;0.60;;;16.30;99.90;;;;;;5070213;28;20462;-72
2022/10/07 11:07:53;;;;;;;3.30;0.80;;;16.50;99.90;;;;;;5070702;28;20131;-72
2022/10/07 11:10:25;;;;;;;5.38;0.80;;;16.60;99.90;;;;;;5069840;28;20055;-72
2022/10/07 11:12:57;;;;;;;3.28;0.77;;;16.60;99.90;;;;;;5052781;28;20494;-73
2022/10/07 11:15:29;;;;;;;5.00;1.27;;;16.60;99.90;;;;;;5070732;28;20040;-73
2022/10/07 11:17:59;;;;;;;6.25;1.33;;;16.70;99.90;;;;;;5052474;28;20036;-73
2022/10/07 11:20:35;;;;;;;6.32;1.38;;;16.70;99.90;;;;;;5052178;28;20024;-73
2022/10/07 11:23:30;;;;;;;7.00;1.30;;;16.80;99.90;;;;;;5069724;28;20043;-73
2022/10/07 11:26:01;;;;;;;6.05;0.90;;;16.80;99.90;;;;;;5048571;28;20262;-73
2022/10/07 11:28:29;;;;;;;8.73;1.42;;;16.90;99.90;;;;;;5043109;28;20128;-73
2022/10/07 11:31:09;;;;;;;7.38;1.10;;;17.10;99.90;;;;;;5049513;28;20458;-73
2022/10/07 11:33:47;;;;;;;8.38;1.20;;;17.30;99.90;;;;;;5032545;28;20119;-72
2022/10/07 11:36:20;;;;;;;9.43;1.50;;;17.40;99.90;;;;;;5061392;28;20102;-74
2022/10/07 11:38:48;;;;;;;9.27;1.45;;;17.50;99.90;;;;;;5056496;28;20041;-73
2022/10/07 11:41:39;;;;;;;8.85;1.60;;;17.50;99.90;;;;;;5069264;28;20036;-74
2022/10/07 11:44:13;;;;;;;10.30;1.83;;;17.40;99.90;;;;;;5069280;28;20047;-73
2022/10/07 11:46:42;;;;;;;9.20;1.88;;;17.40;99.90;;;;;;5051972;28;20141;-73
2022/10/07 11:49:10;;;;;;;12.13;1.60;;;17.30;99.90;;;;;;5068634;28;20039;-73
2022/10/07 11:51:50;;;;;;;11.55;1.60;;;17.30;99.90;;;;;;5049944;28;20056;-72
2022/10/07 11:54:19;;;;;;;10.70;1.48;;;17.30;99.90;;;;;;5049832;28;20402;-72
2022/10/07 11:56:51;;;;;;;10.77;2.05;;;17.30;99.90;;;;;;5048542;28;20036;-73
2022/10/07 11:59:40;;;;;;;12.13;1.98;;;17.30;99.90;;;;;;5048536;28;20036;-72
2022/10/07 12:02:45;;;;;;;6.88;1.63;;;17.10;99.90;;;;;;5051317;28;20048;-72
2022/10/07 12:05:32;;;;;;;11.27;1.80;;;17.20;99.90;;;;;;5005584;28;20040;-72
2022/10/07 12:08:18;;;;;;;8.40;1.38;;;17.30;99.90;;;;;;5054369;28;20044;-73
2022/10/07 12:10:44;;;;;;;10.82;2.00;;;17.40;99.90;;;;;;5036912;28;20055;-72
2022/10/07 12:13:10;;;;;;;12.38;1.98;;;17.50;99.90;;;;;;5049962;28;20036;-74
2022/10/07 12:15:41;;;;;;;10.30;1.48;;;17.40;99.90;;;;;;5049488;28;20044;-72
2022/10/07 12:18:06;;;;;;;8.27;1.58;;;17.40;99.90;;;;;;5035488;28;20550;-73
2022/10/07 12:20:53;;;;;;;9.43;1.55;;;17.30;99.90;;;;;;5049403;28;20104;-74
2022/10/07 12:23:21;;;;;;;12.60;2.05;;;17.30;99.90;;;;;;5066784;28;20185;-73
2022/10/07 12:25:52;;;;;;;9.20;1.50;;;17.50;99.90;;;;;;5059848;28;20089;-73
2022/10/07 12:28:29;;;;;;;11.57;1.63;;;17.60;99.90;;;;;;5051512;28;20032;-73
2022/10/07 12:30:59;;;;;;;13.02;1.70;;;17.60;99.90;;;;;;5054513;28;20029;-73
2022/10/07 12:33:33;;;;;;;9.32;1.60;;;17.50;99.90;;;;;;5051606;28;20033;-72
2022/10/07 12:36:21;;;;;;;7.40;1.50;;;17.50;99.90;;;;;;5056535;28;20041;-75
2022/10/07 12:38:58;;;;;;;12.00;1.98;;;17.40;99.90;;;;;;5057086;28;20054;-73
2022/10/07 12:41:27;;;;;;;9.02;1.52;;;17.20;99.90;;;;;;5042669;28;20045;-73
2022/10/07 12:44:11;;;;;;;11.48;1.83;;;17.20;99.90;;;;;;5049266;28;20112;-72
2022/10/07 12:46:37;;;;;;;12.93;1.95;;;17.30;99.90;;;;;;5031586;28;20052;-72
2022/10/07 12:49:33;;;;;;;9.98;1.30;;;17.70;99.90;;;;;;5048301;28;20029;-72
2022/10/07 12:52:03;;;;;;;7.35;1.60;;;18.00;99.90;;;;;;5048329;28;20028;-74
2022/10/07 12:54:40;;;;;;;8.40;1.45;;;18.10;99.90;;;;;;5032219;28;20037;-74
2022/10/07 12:57:20;;;;;;;13.73;1.58;;;18.00;99.90;;;;;;5052923;28;20128;-73
2022/10/07 12:59:49;;;;;;;;;;;17.90;99.90;;;;;;5069367;28;20691;-73
2022/10/07 13:02:41;;;;;;;7.47;1.40;;;17.80;99.90;;;;;;5059603;28;19943;-71
2022/10/07 13:05:44;;;;;;;10.43;1.30;;;17.80;99.90;;;;;;5049096;28;20102;-72
2022/10/07 13:08:47;;;;;;;11.07;1.60;;;17.90;99.90;;;;;;5048331;28;20024;-72
2022/10/07 13:11:51;;;;;;;10.10;1.83;;;18.10;99.90;;;;;;5044550;28;20128;-73